sensor_id;sensor_type;location;lat;lon;timestamp;P1;durP1;ratioP1;P2;durP2;ratioP2
7231;SDS011;3657;49.630;11.018;2024-01-06T00:01:50;33.67;;;31.47;;
7231;SDS011;3657;49.630;11.018;2024-01-06T00:04:18;32.30;;;30.50;;
7231;SDS011;3657;49.630;11.018;2024-01-06T00:06:45;33.60;;;31.47;;
7231;SDS011;3657;49.630;11.018;2024-01-06T00:09:12;33.93;;;31.93;;
7231;SDS011;3657;49.630;11.018;2024-01-06T00:11:38;32.10;;;30.20;;
7231;SDS011;3657;49.630;11.018;2024-01-06T00:14:05;34.63;;;32.13;;
7231;SDS011;3657;49.630;11.018;2024-01-06T00:16:32;33.93;;;31.77;;
7231;SDS011;3657;49.630;11.018;2024-01-06T00:18:58;32.43;;;30.50;;
7231;SDS011;3657;49.630;11.018;2024-01-06T00:21:27;32.73;;;30.90;;
7231;SDS011;3657;49.630;11.018;2024-01-06T00:23:53;31.93;;;30.10;;
7231;SDS011;3657;49.630;11.018;2024-01-06T00:26:21;33.73;;;31.73;;
7231;SDS011;3657;49.630;11.018;2024-01-06T00:28:48;31.53;;;29.83;;
7231;SDS011;3657;49.630;11.018;2024-01-06T00:31:15;31.77;;;29.97;;
7231;SDS011;3657;49.630;11.018;2024-01-06T00:33:42;31.47;;;29.83;;
7231;SDS011;3657;49.630;11.018;2024-01-06T00:36:09;35.80;;;33.37;;
7231;SDS011;3657;49.630;11.018;2024-01-06T00:38:37;37.07;;;34.30;;
7231;SDS011;3657;49.630;11.018;2024-01-06T00:41:03;31.10;;;29.27;;
7231;SDS011;3657;49.630;11.018;2024-01-06T00:43:30;33.40;;;31.30;;
7231;SDS011;3657;49.630;11.018;2024-01-06T00:45:57;32.80;;;30.90;;
7231;SDS011;3657;49.630;11.018;2024-01-06T00:48:24;32.60;;;30.87;;
7231;SDS011;3657;49.630;11.018;2024-01-06T00:50:50;33.13;;;31.07;;
7231;SDS011;3657;49.630;11.018;2024-01-06T00:53:17;32.67;;;30.77;;
7231;SDS011;3657;49.630;11.018;2024-01-06T00:55:45;32.60;;;30.60;;
7231;SDS011;3657;49.630;11.018;2024-01-06T00:58:11;33.50;;;31.47;;
7231;SDS011;3657;49.630;11.018;2024-01-06T01:00:38;31.83;;;30.03;;
7231;SDS011;3657;49.630;11.018;2024-01-06T01:03:05;30.80;;;29.10;;
7231;SDS011;3657;49.630;11.018;2024-01-06T01:05:32;31.20;;;29.50;;
7231;SDS011;3657;49.630;11.018;2024-01-06T01:07:58;33.77;;;31.00;;
7231;SDS011;3657;49.630;11.018;2024-01-06T01:10:25;32.30;;;30.33;;
7231;SDS011;3657;49.630;11.018;2024-01-06T01:12:53;32.77;;;30.87;;
7231;SDS011;3657;49.630;11.018;2024-01-06T01:15:20;32.30;;;30.30;;
7231;SDS011;3657;49.630;11.018;2024-01-06T01:17:47;35.53;;;32.93;;
7231;SDS011;3657;49.630;11.018;2024-01-06T01:20:13;33.07;;;31.07;;
7231;SDS011;3657;49.630;11.018;2024-01-06T01:22:40;31.83;;;30.13;;
7231;SDS011;3657;49.630;11.018;2024-01-06T01:25:07;31.23;;;29.50;;
7231;SDS011;3657;49.630;11.018;2024-01-06T01:27:34;32.40;;;30.60;;
7231;SDS011;3657;49.630;11.018;2024-01-06T01:30:02;32.70;;;30.83;;
7231;SDS011;3657;49.630;11.018;2024-01-06T01:32:29;31.37;;;29.53;;
7231;SDS011;3657;49.630;11.018;2024-01-06T01:34:56;32.87;;;30.93;;
7231;SDS011;3657;49.630;11.018;2024-01-06T01:37:22;30.17;;;28.57;;
7231;SDS011;3657;49.630;11.018;2024-01-06T01:39:49;31.67;;;29.87;;
7231;SDS011;3657;49.630;11.018;2024-01-06T01:42:16;31.87;;;29.90;;
7231;SDS011;3657;49.630;11.018;2024-01-06T01:44:42;31.60;;;29.83;;
7231;SDS011;3657;49.630;11.018;2024-01-06T01:47:10;32.33;;;30.27;;
7231;SDS011;3657;49.630;11.018;2024-01-06T01:49:38;33.00;;;31.00;;
7231;SDS011;3657;49.630;11.018;2024-01-06T01:52:05;30.37;;;28.87;;
7231;SDS011;3657;49.630;11.018;2024-01-06T01:54:32;31.90;;;30.10;;
7231;SDS011;3657;49.630;11.018;2024-01-06T01:56:59;31.80;;;30.00;;
7231;SDS011;3657;49.630;11.018;2024-01-06T01:59:26;31.93;;;30.03;;
7231;SDS011;3657;49.630;11.018;2024-01-06T02:01:52;30.27;;;28.67;;
7231;SDS011;3657;49.630;11.018;2024-01-06T02:04:21;31.77;;;29.90;;
7231;SDS011;3657;49.630;11.018;2024-01-06T02:06:47;31.37;;;29.60;;
7231;SDS011;3657;49.630;11.018;2024-01-06T02:09:14;31.50;;;29.70;;
7231;SDS011;3657;49.630;11.018;2024-01-06T02:11:41;31.47;;;29.77;;
7231;SDS011;3657;49.630;11.018;2024-01-06T02:14:08;29.83;;;28.30;;
7231;SDS011;3657;49.630;11.018;2024-01-06T02:16:34;30.50;;;28.80;;
7231;SDS011;3657;49.630;11.018;2024-01-06T02:19:01;31.80;;;29.90;;
7231;SDS011;3657;49.630;11.018;2024-01-06T02:21:30;33.47;;;31.37;;
7231;SDS011;3657;49.630;11.018;2024-01-06T02:24:01;31.43;;;29.67;;
7231;SDS011;3657;49.630;11.018;2024-01-06T02:26:28;31.63;;;29.57;;
7231;SDS011;3657;49.630;11.018;2024-01-06T02:28:55;34.50;;;32.23;;
7231;SDS011;3657;49.630;11.018;2024-01-06T02:31:22;34.93;;;32.47;;
7231;SDS011;3657;49.630;11.018;2024-01-06T02:33:48;34.00;;;31.93;;
7231;SDS011;3657;49.630;11.018;2024-01-06T02:36:15;33.13;;;31.13;;
7231;SDS011;3657;49.630;11.018;2024-01-06T02:38:42;32.63;;;30.57;;
7231;SDS011;3657;49.630;11.018;2024-01-06T02:41:10;30.80;;;29.10;;
7231;SDS011;3657;49.630;11.018;2024-01-06T02:43:36;32.23;;;30.33;;
7231;SDS011;3657;49.630;11.018;2024-01-06T02:46:03;32.00;;;30.03;;
7231;SDS011;3657;49.630;11.018;2024-01-06T02:48:30;30.57;;;28.93;;
7231;SDS011;3657;49.630;11.018;2024-01-06T02:50:56;31.27;;;29.63;;
7231;SDS011;3657;49.630;11.018;2024-01-06T02:53:23;28.93;;;27.43;;
7231;SDS011;3657;49.630;11.018;2024-01-06T02:55:50;32.33;;;30.43;;
7231;SDS011;3657;49.630;11.018;2024-01-06T02:58:18;33.50;;;31.17;;
7231;SDS011;3657;49.630;11.018;2024-01-06T03:00:44;30.13;;;28.33;;
7231;SDS011;3657;49.630;11.018;2024-01-06T03:03:11;33.70;;;31.53;;
7231;SDS011;3657;49.630;11.018;2024-01-06T03:05:38;32.73;;;30.80;;
7231;SDS011;3657;49.630;11.018;2024-01-06T03:08:05;29.70;;;28.00;;
7231;SDS011;3657;49.630;11.018;2024-01-06T03:10:31;33.00;;;30.97;;
7231;SDS011;3657;49.630;11.018;2024-01-06T03:12:59;30.03;;;28.43;;
7231;SDS011;3657;49.630;11.018;2024-01-06T03:15:27;32.67;;;30.70;;
7231;SDS011;3657;49.630;11.018;2024-01-06T03:17:54;31.37;;;29.57;;
7231;SDS011;3657;49.630;11.018;2024-01-06T03:20:20;34.33;;;32.13;;
7231;SDS011;3657;49.630;11.018;2024-01-06T03:22:47;31.90;;;30.20;;
7231;SDS011;3657;49.630;11.018;2024-01-06T03:25:14;33.83;;;31.67;;
7231;SDS011;3657;49.630;11.018;2024-01-06T03:27:41;30.77;;;29.07;;
7231;SDS011;3657;49.630;11.018;2024-01-06T03:30:09;31.00;;;29.37;;
7231;SDS011;3657;49.630;11.018;2024-01-06T03:32:37;36.13;;;33.83;;
7231;SDS011;3657;49.630;11.018;2024-01-06T03:35:05;33.00;;;30.93;;
7231;SDS011;3657;49.630;11.018;2024-01-06T03:37:32;34.57;;;32.30;;
7231;SDS011;3657;49.630;11.018;2024-01-06T03:39:59;34.83;;;32.63;;
7231;SDS011;3657;49.630;11.018;2024-01-06T03:42:26;30.87;;;29.17;;
7231;SDS011;3657;49.630;11.018;2024-01-06T03:44:53;31.40;;;29.63;;
7231;SDS011;3657;49.630;11.018;2024-01-06T03:47:19;30.07;;;28.47;;
7231;SDS011;3657;49.630;11.018;2024-01-06T03:49:47;30.10;;;28.50;;
7231;SDS011;3657;49.630;11.018;2024-01-06T03:52:14;32.73;;;30.83;;
7231;SDS011;3657;49.630;11.018;2024-01-06T03:54:41;33.03;;;30.93;;
7231;SDS011;3657;49.630;11.018;2024-01-06T03:57:06;31.27;;;29.47;;
7231;SDS011;3657;49.630;11.018;2024-01-06T03:59:33;32.47;;;30.50;;
7231;SDS011;3657;49.630;11.018;2024-01-06T04:02:00;29.40;;;27.90;;
7231;SDS011;3657;49.630;11.018;2024-01-06T04:04:27;29.77;;;28.17;;
7231;SDS011;3657;49.630;11.018;2024-01-06T04:06:55;32.17;;;30.13;;
7231;SDS011;3657;49.630;11.018;2024-01-06T04:09:21;32.00;;;30.20;;
7231;SDS011;3657;49.630;11.018;2024-01-06T04:11:48;31.60;;;29.70;;
7231;SDS011;3657;49.630;11.018;2024-01-06T04:14:14;29.60;;;27.93;;
7231;SDS011;3657;49.630;11.018;2024-01-06T04:16:41;31.00;;;29.37;;
7231;SDS011;3657;49.630;11.018;2024-01-06T04:19:09;30.50;;;28.90;;
7231;SDS011;3657;49.630;11.018;2024-01-06T04:21:37;30.53;;;28.90;;
7231;SDS011;3657;49.630;11.018;2024-01-06T04:24:07;32.43;;;30.43;;
7231;SDS011;3657;49.630;11.018;2024-01-06T04:26:35;29.73;;;28.23;;
7231;SDS011;3657;49.630;11.018;2024-01-06T04:29:02;29.67;;;28.10;;
7231;SDS011;3657;49.630;11.018;2024-01-06T04:31:29;31.50;;;29.60;;
7231;SDS011;3657;49.630;11.018;2024-01-06T04:33:56;29.77;;;28.27;;
7231;SDS011;3657;49.630;11.018;2024-01-06T04:36:23;30.03;;;28.33;;
7231;SDS011;3657;49.630;11.018;2024-01-06T04:38:49;31.23;;;29.50;;
7231;SDS011;3657;49.630;11.018;2024-01-06T04:41:16;29.60;;;28.20;;
7231;SDS011;3657;49.630;11.018;2024-01-06T04:43:43;28.47;;;27.17;;
7231;SDS011;3657;49.630;11.018;2024-01-06T04:46:10;33.47;;;31.47;;
7231;SDS011;3657;49.630;11.018;2024-01-06T04:48:37;29.93;;;28.43;;
7231;SDS011;3657;49.630;11.018;2024-01-06T04:51:06;29.80;;;28.20;;
7231;SDS011;3657;49.630;11.018;2024-01-06T04:53:35;30.10;;;28.40;;
7231;SDS011;3657;49.630;11.018;2024-01-06T04:56:02;29.00;;;27.60;;
7231;SDS011;3657;49.630;11.018;2024-01-06T04:58:30;28.53;;;27.13;;
7231;SDS011;3657;49.630;11.018;2024-01-06T05:00:56;29.67;;;28.07;;
7231;SDS011;3657;49.630;11.018;2024-01-06T05:03:23;30.73;;;28.87;;
7231;SDS011;3657;49.630;11.018;2024-01-06T05:05:50;29.03;;;27.63;;
7231;SDS011;3657;49.630;11.018;2024-01-06T05:08:17;29.90;;;28.03;;
7231;SDS011;3657;49.630;11.018;2024-01-06T05:10:43;29.27;;;27.67;;
7231;SDS011;3657;49.630;11.018;2024-01-06T05:13:11;29.37;;;27.83;;
7231;SDS011;3657;49.630;11.018;2024-01-06T05:15:39;29.63;;;28.13;;
7231;SDS011;3657;49.630;11.018;2024-01-06T05:18:06;31.70;;;29.70;;
7231;SDS011;3657;49.630;11.018;2024-01-06T05:20:33;30.97;;;28.37;;
7231;SDS011;3657;49.630;11.018;2024-01-06T05:22:59;29.03;;;27.40;;
7231;SDS011;3657;49.630;11.018;2024-01-06T05:25:26;30.03;;;28.33;;
7231;SDS011;3657;49.630;11.018;2024-01-06T05:27:53;30.37;;;28.67;;
7231;SDS011;3657;49.630;11.018;2024-01-06T05:30:20;29.97;;;28.37;;
7231;SDS011;3657;49.630;11.018;2024-01-06T05:32:48;30.10;;;28.40;;
7231;SDS011;3657;49.630;11.018;2024-01-06T05:35:15;28.57;;;27.07;;
7231;SDS011;3657;49.630;11.018;2024-01-06T05:37:42;30.80;;;29.17;;
7231;SDS011;3657;49.630;11.018;2024-01-06T05:40:09;30.90;;;29.17;;
7231;SDS011;3657;49.630;11.018;2024-01-06T05:42:36;30.33;;;28.63;;
7231;SDS011;3657;49.630;11.018;2024-01-06T05:45:03;30.33;;;28.67;;
7231;SDS011;3657;49.630;11.018;2024-01-06T05:47:30;30.77;;;28.87;;
7231;SDS011;3657;49.630;11.018;2024-01-06T05:49:58;30.43;;;28.67;;
7231;SDS011;3657;49.630;11.018;2024-01-06T05:52:25;28.53;;;27.03;;
7231;SDS011;3657;49.630;11.018;2024-01-06T05:54:52;30.73;;;28.93;;
7231;SDS011;3657;49.630;11.018;2024-01-06T05:57:18;33.63;;;31.33;;
7231;SDS011;3657;49.630;11.018;2024-01-06T05:59:45;30.20;;;28.60;;
7231;SDS011;3657;49.630;11.018;2024-01-06T06:02:12;35.17;;;32.47;;
7231;SDS011;3657;49.630;11.018;2024-01-06T06:04:38;29.03;;;27.47;;
7231;SDS011;3657;49.630;11.018;2024-01-06T06:07:06;30.60;;;28.77;;
7231;SDS011;3657;49.630;11.018;2024-01-06T06:09:33;34.10;;;31.87;;
7231;SDS011;3657;49.630;11.018;2024-01-06T06:12:00;30.13;;;28.43;;
7231;SDS011;3657;49.630;11.018;2024-01-06T06:14:27;29.33;;;27.90;;
7231;SDS011;3657;49.630;11.018;2024-01-06T06:16:53;30.13;;;28.53;;
7231;SDS011;3657;49.630;11.018;2024-01-06T06:19:20;31.33;;;29.43;;
7231;SDS011;3657;49.630;11.018;2024-01-06T06:21:47;31.87;;;29.83;;
7231;SDS011;3657;49.630;11.018;2024-01-06T06:24:15;31.03;;;29.30;;
7231;SDS011;3657;49.630;11.018;2024-01-06T06:26:41;31.70;;;29.80;;
7231;SDS011;3657;49.630;11.018;2024-01-06T06:29:08;30.73;;;28.97;;
7231;SDS011;3657;49.630;11.018;2024-01-06T06:31:34;32.90;;;30.97;;
7231;SDS011;3657;49.630;11.018;2024-01-06T06:34:01;30.87;;;29.13;;
7231;SDS011;3657;49.630;11.018;2024-01-06T06:36:28;30.30;;;28.63;;
7231;SDS011;3657;49.630;11.018;2024-01-06T06:38:55;32.90;;;30.83;;
7231;SDS011;3657;49.630;11.018;2024-01-06T06:41:24;30.20;;;28.47;;
7231;SDS011;3657;49.630;11.018;2024-01-06T06:43:51;31.03;;;29.13;;
7231;SDS011;3657;49.630;11.018;2024-01-06T06:46:17;32.90;;;31.00;;
7231;SDS011;3657;49.630;11.018;2024-01-06T06:48:44;31.97;;;30.17;;
7231;SDS011;3657;49.630;11.018;2024-01-06T06:51:10;32.67;;;30.77;;
7231;SDS011;3657;49.630;11.018;2024-01-06T06:53:37;29.90;;;28.10;;
7231;SDS011;3657;49.630;11.018;2024-01-06T06:56:04;30.97;;;29.40;;
7231;SDS011;3657;49.630;11.018;2024-01-06T06:58:33;32.20;;;30.40;;
7231;SDS011;3657;49.630;11.018;2024-01-06T07:00:59;33.20;;;30.90;;
7231;SDS011;3657;49.630;11.018;2024-01-06T07:03:26;35.87;;;32.30;;
7231;SDS011;3657;49.630;11.018;2024-01-06T07:05:53;33.03;;;30.93;;
7231;SDS011;3657;49.630;11.018;2024-01-06T07:08:19;31.90;;;30.00;;
7231;SDS011;3657;49.630;11.018;2024-01-06T07:10:46;31.53;;;29.87;;
7231;SDS011;3657;49.630;11.018;2024-01-06T07:13:13;31.80;;;30.00;;
7231;SDS011;3657;49.630;11.018;2024-01-06T07:15:41;31.13;;;29.40;;
7231;SDS011;3657;49.630;11.018;2024-01-06T07:18:10;30.77;;;29.07;;
7231;SDS011;3657;49.630;11.018;2024-01-06T07:20:36;35.07;;;32.37;;
7231;SDS011;3657;49.630;11.018;2024-01-06T07:23:03;32.00;;;30.03;;
7231;SDS011;3657;49.630;11.018;2024-01-06T07:25:30;36.40;;;33.57;;
7231;SDS011;3657;49.630;11.018;2024-01-06T07:27:56;31.53;;;29.67;;
7231;SDS011;3657;49.630;11.018;2024-01-06T07:30:27;31.40;;;29.70;;
7231;SDS011;3657;49.630;11.018;2024-01-06T07:32:55;33.87;;;31.87;;
7231;SDS011;3657;49.630;11.018;2024-01-06T07:35:22;32.47;;;30.57;;
7231;SDS011;3657;49.630;11.018;2024-01-06T07:37:49;34.13;;;31.93;;
7231;SDS011;3657;49.630;11.018;2024-01-06T07:40:16;31.80;;;30.10;;
7231;SDS011;3657;49.630;11.018;2024-01-06T07:42:51;31.80;;;29.90;;
7231;SDS011;3657;49.630;11.018;2024-01-06T07:45:18;32.33;;;30.27;;
7231;SDS011;3657;49.630;11.018;2024-01-06T07:47:45;34.37;;;31.33;;
7231;SDS011;3657;49.630;11.018;2024-01-06T07:50:15;30.73;;;29.03;;
7231;SDS011;3657;49.630;11.018;2024-01-06T07:52:42;30.60;;;28.90;;
7231;SDS011;3657;49.630;11.018;2024-01-06T07:55:09;30.53;;;28.87;;
7231;SDS011;3657;49.630;11.018;2024-01-06T07:57:36;31.53;;;29.87;;
7231;SDS011;3657;49.630;11.018;2024-01-06T08:00:03;29.60;;;28.10;;
7231;SDS011;3657;49.630;11.018;2024-01-06T08:02:31;31.00;;;29.40;;
7231;SDS011;3657;49.630;11.018;2024-01-06T08:04:58;31.80;;;30.03;;
7231;SDS011;3657;49.630;11.018;2024-01-06T08:07:26;29.13;;;27.53;;
7231;SDS011;3657;49.630;11.018;2024-01-06T08:09:52;31.23;;;29.63;;
7231;SDS011;3657;49.630;11.018;2024-01-06T08:12:19;30.23;;;28.70;;
7231;SDS011;3657;49.630;11.018;2024-01-06T08:14:46;31.43;;;29.80;;
7231;SDS011;3657;49.630;11.018;2024-01-06T08:17:12;33.13;;;31.23;;
7231;SDS011;3657;49.630;11.018;2024-01-06T08:19:39;29.60;;;28.17;;
7231;SDS011;3657;49.630;11.018;2024-01-06T08:22:06;30.93;;;29.30;;
7231;SDS011;3657;49.630;11.018;2024-01-06T08:24:34;30.07;;;28.33;;
7231;SDS011;3657;49.630;11.018;2024-01-06T08:27:01;33.17;;;30.93;;
7231;SDS011;3657;49.630;11.018;2024-01-06T08:29:28;31.80;;;29.93;;
7231;SDS011;3657;49.630;11.018;2024-01-06T08:31:55;33.53;;;31.53;;
7231;SDS011;3657;49.630;11.018;2024-01-06T08:34:21;33.30;;;31.30;;
7231;SDS011;3657;49.630;11.018;2024-01-06T08:36:48;29.57;;;28.00;;
7231;SDS011;3657;49.630;11.018;2024-01-06T08:39:15;32.10;;;30.33;;
7231;SDS011;3657;49.630;11.018;2024-01-06T08:41:43;28.93;;;27.33;;
7231;SDS011;3657;49.630;11.018;2024-01-06T08:44:11;31.53;;;29.77;;
7231;SDS011;3657;49.630;11.018;2024-01-06T08:46:38;33.90;;;31.63;;
7231;SDS011;3657;49.630;11.018;2024-01-06T08:49:04;31.17;;;29.37;;
7231;SDS011;3657;49.630;11.018;2024-01-06T08:51:31;31.27;;;29.70;;
7231;SDS011;3657;49.630;11.018;2024-01-06T08:53:58;29.67;;;28.07;;
7231;SDS011;3657;49.630;11.018;2024-01-06T08:56:25;33.73;;;31.87;;
7231;SDS011;3657;49.630;11.018;2024-01-06T08:58:54;36.20;;;34.00;;
7231;SDS011;3657;49.630;11.018;2024-01-06T09:01:22;31.53;;;29.80;;
7231;SDS011;3657;49.630;11.018;2024-01-06T09:03:48;30.20;;;28.70;;
7231;SDS011;3657;49.630;11.018;2024-01-06T09:06:15;33.57;;;31.47;;
7231;SDS011;3657;49.630;11.018;2024-01-06T09:08:42;32.77;;;30.70;;
7231;SDS011;3657;49.630;11.018;2024-01-06T09:11:08;32.37;;;30.67;;
7231;SDS011;3657;49.630;11.018;2024-01-06T09:13:35;31.03;;;29.43;;
7231;SDS011;3657;49.630;11.018;2024-01-06T09:16:03;30.70;;;29.13;;
7231;SDS011;3657;49.630;11.018;2024-01-06T09:18:30;31.37;;;29.77;;
7231;SDS011;3657;49.630;11.018;2024-01-06T09:20:57;31.17;;;29.37;;
7231;SDS011;3657;49.630;11.018;2024-01-06T09:23:24;32.30;;;30.50;;
7231;SDS011;3657;49.630;11.018;2024-01-06T09:25:50;32.40;;;30.57;;
7231;SDS011;3657;49.630;11.018;2024-01-06T09:28:17;32.17;;;30.37;;
7231;SDS011;3657;49.630;11.018;2024-01-06T09:30:46;31.70;;;29.90;;
7231;SDS011;3657;49.630;11.018;2024-01-06T09:33:14;31.57;;;29.87;;
7231;SDS011;3657;49.630;11.018;2024-01-06T09:35:40;32.10;;;30.23;;
7231;SDS011;3657;49.630;11.018;2024-01-06T09:38:07;31.30;;;29.63;;
7231;SDS011;3657;49.630;11.018;2024-01-06T09:40:34;31.27;;;29.57;;
7231;SDS011;3657;49.630;11.018;2024-01-06T09:43:03;33.80;;;31.80;;
7231;SDS011;3657;49.630;11.018;2024-01-06T09:45:30;32.40;;;30.63;;
7231;SDS011;3657;49.630;11.018;2024-01-06T09:47:57;32.27;;;30.43;;
7231;SDS011;3657;49.630;11.018;2024-01-06T09:50:26;33.40;;;31.27;;
7231;SDS011;3657;49.630;11.018;2024-01-06T09:52:54;36.87;;;34.47;;
7231;SDS011;3657;49.630;11.018;2024-01-06T09:55:30;31.90;;;30.10;;
7231;SDS011;3657;49.630;11.018;2024-01-06T09:57:57;32.57;;;30.67;;
7231;SDS011;3657;49.630;11.018;2024-01-06T10:00:24;37.37;;;35.07;;
7231;SDS011;3657;49.630;11.018;2024-01-06T10:02:50;33.43;;;31.47;;
7231;SDS011;3657;49.630;11.018;2024-01-06T10:05:17;32.83;;;31.00;;
7231;SDS011;3657;49.630;11.018;2024-01-06T10:07:45;40.93;;;38.17;;
7231;SDS011;3657;49.630;11.018;2024-01-06T10:10:13;33.13;;;31.33;;
7231;SDS011;3657;49.630;11.018;2024-01-06T10:12:41;45.70;;;42.47;;
7231;SDS011;3657;49.630;11.018;2024-01-06T10:15:08;40.90;;;38.03;;
7231;SDS011;3657;49.630;11.018;2024-01-06T10:17:37;34.63;;;32.63;;
7231;SDS011;3657;49.630;11.018;2024-01-06T10:20:06;39.00;;;36.40;;
7231;SDS011;3657;49.630;11.018;2024-01-06T10:22:34;35.07;;;32.40;;
7231;SDS011;3657;49.630;11.018;2024-01-06T10:25:03;43.93;;;40.90;;
7231;SDS011;3657;49.630;11.018;2024-01-06T10:27:33;38.90;;;36.43;;
7231;SDS011;3657;49.630;11.018;2024-01-06T10:30:00;36.70;;;34.20;;
7231;SDS011;3657;49.630;11.018;2024-01-06T10:32:29;34.03;;;31.97;;
7231;SDS011;3657;49.630;11.018;2024-01-06T10:34:57;45.43;;;42.33;;
7231;SDS011;3657;49.630;11.018;2024-01-06T10:37:25;46.40;;;42.60;;
7231;SDS011;3657;49.630;11.018;2024-01-06T10:40:05;52.97;;;48.23;;
7231;SDS011;3657;49.630;11.018;2024-01-06T10:42:33;50.20;;;45.77;;
7231;SDS011;3657;49.630;11.018;2024-01-06T10:45:00;35.00;;;33.03;;
7231;SDS011;3657;49.630;11.018;2024-01-06T10:47:26;49.93;;;45.90;;
7231;SDS011;3657;49.630;11.018;2024-01-06T10:49:55;43.67;;;40.53;;
7231;SDS011;3657;49.630;11.018;2024-01-06T10:52:24;48.13;;;44.37;;
7231;SDS011;3657;49.630;11.018;2024-01-06T10:54:53;51.00;;;46.90;;
7231;SDS011;3657;49.630;11.018;2024-01-06T10:57:22;46.70;;;42.90;;
7231;SDS011;3657;49.630;11.018;2024-01-06T10:59:50;47.53;;;43.67;;
7231;SDS011;3657;49.630;11.018;2024-01-06T11:02:18;39.40;;;36.73;;
7231;SDS011;3657;49.630;11.018;2024-01-06T11:04:45;41.17;;;38.13;;
7231;SDS011;3657;49.630;11.018;2024-01-06T11:07:13;40.33;;;37.30;;
7231;SDS011;3657;49.630;11.018;2024-01-06T11:09:41;39.70;;;36.80;;
7231;SDS011;3657;49.630;11.018;2024-01-06T11:12:12;37.43;;;34.93;;
7231;SDS011;3657;49.630;11.018;2024-01-06T11:14:42;39.33;;;36.67;;
7231;SDS011;3657;49.630;11.018;2024-01-06T11:17:10;35.43;;;33.17;;
7231;SDS011;3657;49.630;11.018;2024-01-06T11:19:44;35.90;;;33.53;;
7231;SDS011;3657;49.630;11.018;2024-01-06T11:22:25;35.83;;;33.63;;
7231;SDS011;3657;49.630;11.018;2024-01-06T11:24:53;33.77;;;31.77;;
7231;SDS011;3657;49.630;11.018;2024-01-06T11:27:23;35.20;;;33.10;;
7231;SDS011;3657;49.630;11.018;2024-01-06T11:29:54;33.93;;;31.73;;
7231;SDS011;3657;49.630;11.018;2024-01-06T11:32:25;35.83;;;33.37;;
7231;SDS011;3657;49.630;11.018;2024-01-06T11:34:53;37.33;;;34.93;;
7231;SDS011;3657;49.630;11.018;2024-01-06T11:37:24;33.57;;;31.57;;
7231;SDS011;3657;49.630;11.018;2024-01-06T11:40:01;32.90;;;31.20;;
7231;SDS011;3657;49.630;11.018;2024-01-06T11:42:31;34.23;;;32.00;;
7231;SDS011;3657;49.630;11.018;2024-01-06T11:45:02;34.00;;;32.00;;
7231;SDS011;3657;49.630;11.018;2024-01-06T11:47:31;37.87;;;35.30;;
7231;SDS011;3657;49.630;11.018;2024-01-06T11:49:59;37.90;;;35.10;;
7231;SDS011;3657;49.630;11.018;2024-01-06T11:52:29;34.43;;;32.27;;
7231;SDS011;3657;49.630;11.018;2024-01-06T11:54:56;45.57;;;42.00;;
7231;SDS011;3657;49.630;11.018;2024-01-06T11:57:23;32.87;;;30.93;;
7231;SDS011;3657;49.630;11.018;2024-01-06T11:59:51;32.77;;;31.00;;
7231;SDS011;3657;49.630;11.018;2024-01-06T12:02:19;34.57;;;32.37;;
7231;SDS011;3657;49.630;11.018;2024-01-06T12:04:47;37.10;;;34.63;;
7231;SDS011;3657;49.630;11.018;2024-01-06T12:07:15;32.73;;;30.80;;
7231;SDS011;3657;49.630;11.018;2024-01-06T12:09:42;33.87;;;32.00;;
7231;SDS011;3657;49.630;11.018;2024-01-06T12:12:09;37.67;;;35.07;;
7231;SDS011;3657;49.630;11.018;2024-01-06T12:14:38;35.73;;;33.63;;
7231;SDS011;3657;49.630;11.018;2024-01-06T12:17:07;33.27;;;31.13;;
7231;SDS011;3657;49.630;11.018;2024-01-06T12:19:35;34.20;;;32.17;;
7231;SDS011;3657;49.630;11.018;2024-01-06T12:22:02;33.23;;;31.43;;
7231;SDS011;3657;49.630;11.018;2024-01-06T12:24:30;37.10;;;34.67;;
7231;SDS011;3657;49.630;11.018;2024-01-06T12:26:57;34.13;;;32.03;;
7231;SDS011;3657;49.630;11.018;2024-01-06T12:29:26;35.63;;;33.63;;
7231;SDS011;3657;49.630;11.018;2024-01-06T12:31:54;34.63;;;32.80;;
7231;SDS011;3657;49.630;11.018;2024-01-06T12:34:21;32.77;;;30.97;;
7231;SDS011;3657;49.630;11.018;2024-01-06T12:36:51;32.50;;;30.77;;
7231;SDS011;3657;49.630;11.018;2024-01-06T12:39:20;33.63;;;31.80;;
7231;SDS011;3657;49.630;11.018;2024-01-06T12:41:48;36.27;;;33.37;;
7231;SDS011;3657;49.630;11.018;2024-01-06T12:44:16;34.10;;;32.00;;
7231;SDS011;3657;49.630;11.018;2024-01-06T12:46:43;37.10;;;34.53;;
7231;SDS011;3657;49.630;11.018;2024-01-06T12:49:09;34.47;;;32.23;;
7231;SDS011;3657;49.630;11.018;2024-01-06T12:51:36;32.87;;;30.97;;
7231;SDS011;3657;49.630;11.018;2024-01-06T12:54:04;33.63;;;31.50;;
7231;SDS011;3657;49.630;11.018;2024-01-06T12:56:31;33.50;;;31.60;;
7231;SDS011;3657;49.630;11.018;2024-01-06T12:58:58;35.20;;;33.00;;
7231;SDS011;3657;49.630;11.018;2024-01-06T13:01:24;39.03;;;36.40;;
7231;SDS011;3657;49.630;11.018;2024-01-06T13:03:51;33.30;;;31.53;;
7231;SDS011;3657;49.630;11.018;2024-01-06T13:06:19;36.67;;;34.57;;
7231;SDS011;3657;49.630;11.018;2024-01-06T13:08:45;34.23;;;32.33;;
7231;SDS011;3657;49.630;11.018;2024-01-06T13:11:14;36.73;;;34.43;;
7231;SDS011;3657;49.630;11.018;2024-01-06T13:13:41;36.07;;;33.87;;
7231;SDS011;3657;49.630;11.018;2024-01-06T13:16:07;39.33;;;36.63;;
7231;SDS011;3657;49.630;11.018;2024-01-06T13:18:34;35.40;;;33.20;;
7231;SDS011;3657;49.630;11.018;2024-01-06T13:21:00;36.57;;;34.17;;
7231;SDS011;3657;49.630;11.018;2024-01-06T13:23:27;38.40;;;35.90;;
7231;SDS011;3657;49.630;11.018;2024-01-06T13:25:54;38.13;;;35.73;;
7231;SDS011;3657;49.630;11.018;2024-01-06T13:28:23;39.80;;;37.47;;
7231;SDS011;3657;49.630;11.018;2024-01-06T13:30:50;38.17;;;35.97;;
7231;SDS011;3657;49.630;11.018;2024-01-06T13:33:18;37.00;;;34.90;;
7231;SDS011;3657;49.630;11.018;2024-01-06T13:35:45;38.80;;;36.10;;
7231;SDS011;3657;49.630;11.018;2024-01-06T13:38:12;38.30;;;35.70;;
7231;SDS011;3657;49.630;11.018;2024-01-06T13:40:39;34.83;;;32.83;;
7231;SDS011;3657;49.630;11.018;2024-01-06T13:43:06;36.50;;;34.20;;
7231;SDS011;3657;49.630;11.018;2024-01-06T13:45:41;34.97;;;32.97;;
7231;SDS011;3657;49.630;11.018;2024-01-06T13:48:09;34.43;;;32.67;;
7231;SDS011;3657;49.630;11.018;2024-01-06T13:50:36;35.93;;;33.63;;
7231;SDS011;3657;49.630;11.018;2024-01-06T13:53:03;34.03;;;31.90;;
7231;SDS011;3657;49.630;11.018;2024-01-06T13:55:31;33.80;;;31.70;;
7231;SDS011;3657;49.630;11.018;2024-01-06T13:57:59;36.27;;;34.07;;
7231;SDS011;3657;49.630;11.018;2024-01-06T14:00:25;35.50;;;32.90;;
7231;SDS011;3657;49.630;11.018;2024-01-06T14:02:53;35.10;;;33.10;;
7231;SDS011;3657;49.630;11.018;2024-01-06T14:05:21;37.53;;;35.13;;
7231;SDS011;3657;49.630;11.018;2024-01-06T14:07:48;35.33;;;33.17;;
7231;SDS011;3657;49.630;11.018;2024-01-06T14:10:15;35.80;;;33.43;;
7231;SDS011;3657;49.630;11.018;2024-01-06T14:12:42;36.10;;;33.73;;
7231;SDS011;3657;49.630;11.018;2024-01-06T14:15:09;35.43;;;33.23;;
7231;SDS011;3657;49.630;11.018;2024-01-06T14:17:36;32.17;;;30.37;;
7231;SDS011;3657;49.630;11.018;2024-01-06T14:20:06;35.63;;;33.33;;
7231;SDS011;3657;49.630;11.018;2024-01-06T14:22:34;34.73;;;32.53;;
7231;SDS011;3657;49.630;11.018;2024-01-06T14:25:02;34.90;;;32.90;;
7231;SDS011;3657;49.630;11.018;2024-01-06T14:27:29;35.63;;;33.20;;
7231;SDS011;3657;49.630;11.018;2024-01-06T14:29:56;32.20;;;30.60;;
7231;SDS011;3657;49.630;11.018;2024-01-06T14:32:22;32.40;;;30.70;;
7231;SDS011;3657;49.630;11.018;2024-01-06T14:34:49;30.50;;;28.80;;